Time;durP1;ratioP1;P1;durP2;ratioP2;P2;SDS_P1;SDS_P2;PMS_P1;PMS_P2;Temp;Humidity;BMP_temperature;BMP_pressure;BME280_temperature;BME280_humidity;BME280_pressure;Samples;Min_cycle;Max_cycle;Signal;HPM_P1;HPM_P2
2024/02/08 00:00:56;;;;;;;11.55;7.05;;;2.10;1.00;;;;;;5094031;28;20236;-77
2024/02/08 00:03:22;;;;;;;8.27;6.80;;;2.10;1.00;;;;;;5096742;28;20417;-75
2024/02/08 00:05:49;;;;;;;11.80;8.30;;;2.10;1.00;;;;;;5092222;28;20231;-76
2024/02/08 00:08:16;;;;;;;15.52;7.65;;;2.10;1.00;;;;;;5094284;27;20331;-75
2024/02/08 00:10:45;;;;;;;10.35;7.20;;;2.10;1.00;;;;;;5103082;27;20263;-75
2024/02/08 00:13:12;;;;;;;10.57;6.75;;;2.10;1.00;;;;;;5111719;27;20258;-76
2024/02/08 00:15:40;;;;;;;13.73;8.30;;;2.10;1.00;;;;;;5110919;27;20703;-74
2024/02/08 00:18:08;;;;;;;13.05;7.22;;;2.00;1.00;;;;;;5108546;28;20684;-76
2024/02/08 00:20:35;;;;;;;10.30;7.53;;;1.90;1.00;;;;;;5112838;27;20231;-75
2024/02/08 00:23:02;;;;;;;14.55;7.63;;;1.80;1.00;;;;;;5112618;27;20713;-72
2024/02/08 00:25:29;;;;;;;12.60;7.97;;;1.70;1.00;;;;;;5109965;28;20280;-73
2024/02/08 00:27:58;;;;;;;10.02;7.00;;;1.60;1.00;;;;;;5114955;27;20236;-73
2024/02/08 00:30:25;;;;;;;13.23;7.80;;;1.60;1.00;;;;;;5111145;27;20245;-72
2024/02/08 00:32:52;;;;;;;13.93;7.32;;;1.50;1.00;;;;;;5110388;27;20473;-77
2024/02/08 00:35:19;;;;;;;17.80;7.40;;;1.50;1.00;;;;;;5111495;27;20235;-78
2024/02/08 00:37:49;;;;;;;11.98;7.88;;;1.50;1.00;;;;;;5109694;27;20756;-76
2024/02/08 00:40:19;;;;;;;15.07;8.15;;;1.50;1.00;;;;;;5111005;27;20231;-76
2024/02/08 00:42:47;;;;;;;12.63;6.90;;;1.50;1.00;;;;;;5111160;28;20235;-77
2024/02/08 00:45:22;;;;;;;13.57;6.35;;;1.50;1.00;;;;;;5111863;27;20240;-76
2024/02/08 00:47:50;;;;;;;14.52;7.97;;;1.50;1.00;;;;;;5113442;27;20246;-77
2024/02/08 00:50:17;;;;;;;14.38;7.22;;;1.50;1.00;;;;;;5111963;27;20334;-77
2024/02/08 00:52:45;;;;;;;9.73;6.57;;;1.50;1.00;;;;;;5112091;27;20259;-74
2024/02/08 00:55:15;;;;;;;10.15;7.38;;;1.50;1.00;;;;;;5109657;27;20321;-77
2024/02/08 00:57:41;;;;;;;13.15;7.13;;;1.40;1.00;;;;;;5107521;27;20243;-74
2024/02/08 01:00:10;;;;;;;13.38;7.18;;;1.50;1.00;;;;;;5107973;27;20238;-77
2024/02/08 01:02:40;;;;;;;12.55;7.20;;;1.40;1.00;;;;;;5112127;28;20255;-78
2024/02/08 01:05:07;;;;;;;14.68;7.05;;;1.50;1.00;;;;;;5110422;28;20266;-77
2024/02/08 01:07:34;;;;;;;12.30;6.38;;;1.40;1.00;;;;;;5108790;27;20236;-77
2024/02/08 01:10:01;;;;;;;15.52;7.50;;;1.40;1.00;;;;;;5111495;28;20266;-77
2024/02/08 01:12:29;;;;;;;13.68;7.00;;;1.30;1.00;;;;;;5110643;27;20235;-78
2024/02/08 01:14:56;;;;;;;8.48;6.43;;;1.30;1.00;;;;;;5110898;27;20336;-77
2024/02/08 01:17:22;;;;;;;12.93;7.03;;;1.20;1.00;;;;;;5109115;27;20246;-79
2024/02/08 01:19:52;;;;;;;10.27;6.80;;;1.20;1.00;;;;;;5108861;28;20316;-76
2024/02/08 01:22:20;;;;;;;14.18;7.35;;;1.10;1.00;;;;;;5110046;27;20231;-77
2024/02/08 01:24:48;;;;;;;16.55;6.85;;;1.10;1.00;;;;;;5110227;27;20231;-77
2024/02/08 01:27:20;;;;;;;9.35;5.90;;;1.10;1.00;;;;;;5111595;27;20246;-77
2024/02/08 01:29:47;;;;;;;9.18;5.93;;;1.20;1.00;;;;;;5111358;27;20231;-74
2024/02/08 01:32:15;;;;;;;14.05;7.18;;;1.20;1.00;;;;;;5110484;27;20215;-75
2024/02/08 01:34:44;;;;;;;14.52;6.32;;;1.20;1.00;;;;;;5112124;27;20263;-77
2024/02/08 01:37:14;;;;;;;14.18;6.55;;;1.10;1.00;;;;;;5111201;28;20235;-74
2024/02/08 01:39:41;;;;;;;12.75;6.00;;;1.10;1.00;;;;;;5111504;27;20247;-76
2024/02/08 01:42:12;;;;;;;12.48;6.07;;;1.20;1.00;;;;;;5107839;27;20242;-74
2024/02/08 01:44:45;;;;;;;11.88;6.25;;;1.20;1.00;;;;;;5108834;27;20243;-78
2024/02/08 01:47:12;;;;;;;11.15;5.88;;;1.30;1.00;;;;;;5110114;27;20227;-77
2024/02/08 01:49:39;;;;;;;10.45;6.30;;;1.30;1.00;;;;;;5111645;27;20296;-76
2024/02/08 01:52:10;;;;;;;14.25;7.13;;;1.30;1.00;;;;;;5109710;27;20294;-76
2024/02/08 01:54:43;;;;;;;10.60;5.85;;;1.30;1.00;;;;;;5110339;28;20251;-75
2024/02/08 01:57:12;;;;;;;11.93;6.43;;;1.20;1.00;;;;;;5108458;27;20253;-77
2024/02/08 01:59:40;;;;;;;16.35;6.30;;;1.20;1.00;;;;;;5110359;27;20247;-75
2024/02/08 02:02:09;;;;;;;11.75;6.55;;;1.10;1.00;;;;;;5110659;27;20316;-75
2024/02/08 02:04:39;;;;;;;10.45;6.95;;;1.10;1.00;;;;;;5108888;28;20346;-76
2024/02/08 02:07:06;;;;;;;9.18;5.93;;;1.00;1.00;;;;;;5110454;28;20227;-75
2024/02/08 02:09:35;;;;;;;13.65;6.53;;;1.00;1.00;;;;;;5108843;27;20293;-76
2024/02/08 02:12:09;;;;;;;13.60;6.22;;;1.00;1.00;;;;;;5107279;27;20231;-76
2024/02/08 02:14:38;;;;;;;11.43;5.85;;;1.00;1.00;;;;;;5106490;27;20238;-76
2024/02/08 02:17:12;;;;;;;9.32;5.85;;;0.90;1.00;;;;;;5107828;27;20613;-75
2024/02/08 02:19:39;;;;;;;9.68;4.97;;;0.90;1.00;;;;;;5109827;27;20318;-76
2024/02/08 02:22:10;;;;;;;13.77;6.05;;;0.90;1.00;;;;;;5111905;27;20239;-75
2024/02/08 02:24:37;;;;;;;10.10;6.57;;;1.00;1.00;;;;;;5114031;27;20235;-77
2024/02/08 02:27:05;;;;;;;15.10;5.25;;;1.00;1.00;;;;;;5113652;27;20988;-76
2024/02/08 02:29:32;;;;;;;7.72;5.25;;;1.00;1.00;;;;;;5114306;27;20278;-74
2024/02/08 02:32:00;;;;;;;12.90;5.60;;;1.10;1.00;;;;;;5114599;27;20262;-76
2024/02/08 02:34:30;;;;;;;11.70;5.25;;;1.10;1.00;;;;;;5113406;27;20257;-76
2024/02/08 02:36:59;;;;;;;15.93;6.20;;;1.10;1.00;;;;;;5111822;27;20239;-75
2024/02/08 02:39:31;;;;;;;10.40;5.93;;;1.10;1.00;;;;;;5115794;27;20243;-76
2024/02/08 02:41:58;;;;;;;10.77;5.07;;;1.10;1.00;;;;;;5113305;27;20232;-75
2024/02/08 02:44:27;;;;;;;9.55;5.05;;;1.10;1.00;;;;;;5112793;27;20235;-74
2024/02/08 02:46:53;;;;;;;7.47;5.38;;;1.00;1.00;;;;;;5109655;28;20244;-75
2024/02/08 02:49:21;;;;;;;8.25;4.10;;;1.00;1.00;;;;;;5113175;27;20394;-75
2024/02/08 02:51:48;;;;;;;10.95;5.10;;;1.00;1.00;;;;;;5112667;27;20239;-75
2024/02/08 02:54:16;;;;;;;10.52;5.13;;;1.10;1.00;;;;;;5111735;27;20718;-75
2024/02/08 02:56:47;;;;;;;15.57;5.35;;;1.20;1.00;;;;;;5111793;27;20319;-75
2024/02/08 02:59:16;;;;;;;7.38;4.97;;;1.20;1.00;;;;;;5113385;27;20235;-74
2024/02/08 03:01:47;;;;;;;9.82;4.85;;;1.20;1.00;;;;;;5114898;27;20239;-78
2024/02/08 03:04:15;;;;;;;8.20;5.10;;;1.20;1.00;;;;;;5111087;27;20250;-76
2024/02/08 03:06:45;;;;;;;6.75;4.70;;;1.30;1.00;;;;;;5111910;27;20231;-75
2024/02/08 03:09:15;;;;;;;11.48;4.72;;;1.40;1.00;;;;;;5111113;27;20270;-76
2024/02/08 03:11:42;;;;;;;11.27;5.90;;;1.40;1.00;;;;;;5108052;27;20232;-75
2024/02/08 03:14:11;;;;;;;12.20;4.97;;;1.40;1.00;;;;;;5114523;27;20239;-75
2024/02/08 03:16:41;;;;;;;13.50;5.25;;;1.50;1.00;;;;;;5112124;27;20262;-76
2024/02/08 03:19:08;;;;;;;8.93;5.05;;;1.40;1.00;;;;;;5110210;27;20248;-75
2024/02/08 03:21:36;;;;;;;9.93;5.40;;;1.40;1.00;;;;;;5113687;27;20317;-74
2024/02/08 03:24:07;;;;;;;11.60;5.03;;;1.40;1.00;;;;;;5110833;27;20244;-75
2024/02/08 03:26:40;;;;;;;14.23;5.40;;;1.40;1.00;;;;;;5111760;27;20672;-74
2024/02/08 03:29:11;;;;;;;9.15;6.10;;;1.30;1.00;;;;;;5111915;27;20240;-75
2024/02/08 03:31:45;;;;;;;10.15;5.28;;;1.40;1.00;;;;;;5110204;27;20318;-74
2024/02/08 03:34:16;;;;;;;13.35;5.93;;;1.40;1.00;;;;;;5114517;27;20568;-76
2024/02/08 03:36:46;;;;;;;11.90;6.25;;;1.50;1.00;;;;;;5111111;27;20699;-74
2024/02/08 03:39:24;;;;;;;12.73;6.47;;;1.60;1.00;;;;;;5111275;27;21218;-75
2024/02/08 03:41:53;;;;;;;9.10;5.07;;;1.60;1.00;;;;;;5110968;27;20241;-74
2024/02/08 03:44:22;;;;;;;9.55;5.35;;;1.50;1.00;;;;;;5111700;27;20770;-76
2024/02/08 03:46:52;;;;;;;11.52;5.25;;;1.50;1.00;;;;;;5113099;27;20239;-74
2024/02/08 03:49:19;;;;;;;15.68;5.80;;;1.50;1.00;;;;;;5110188;27;20290;-76
2024/02/08 03:51:48;;;;;;;8.95;5.38;;;1.50;1.00;;;;;;5111083;27;20271;-75
2024/02/08 03:54:17;;;;;;;13.48;5.63;;;1.50;1.00;;;;;;5111086;28;20286;-75
2024/02/08 03:56:45;;;;;;;9.00;5.28;;;1.50;1.00;;;;;;5112156;27;20797;-74
2024/02/08 03:59:26;;;;;;;13.23;5.55;;;1.50;1.00;;;;;;5112737;27;20227;-75
2024/02/08 04:02:00;;;;;;;13.15;5.57;;;1.60;1.00;;;;;;5109308;27;25891;-75
2024/02/08 04:04:35;;;;;;;12.27;5.72;;;1.60;1.00;;;;;;5112973;27;20941;-76
2024/02/08 04:07:19;;;;;;;14.13;6.18;;;1.50;1.00;;;;;;5112528;27;20312;-75
2024/02/08 04:09:50;;;;;;;7.75;5.40;;;1.50;1.00;;;;;;5113398;27;20249;-75
2024/02/08 04:53:39;;;;;;;6.72;5.70;;;1.60;1.00;;;;;;5106072;27;20235;-73
2024/02/08 04:56:10;;;;;;;9.60;6.55;;;1.60;1.00;;;;;;5112806;27;20746;-70
2024/02/08 04:58:39;;;;;;;16.10;7.55;;;1.60;1.00;;;;;;5109132;27;20407;-71
2024/02/08 05:01:08;;;;;;;16.08;8.13;;;1.60;1.00;;;;;;5109045;27;20322;-70
2024/02/08 05:03:37;;;;;;;9.27;6.40;;;1.60;1.00;;;;;;5103372;27;20242;-69
2024/02/08 05:06:11;;;;;;;12.45;6.00;;;1.60;1.00;;;;;;5107057;28;20231;-71
2024/02/08 05:08:39;;;;;;;17.25;6.13;;;1.60;1.00;;;;;;5108179;27;20239;-70
2024/02/08 05:11:09;;;;;;;12.93;6.40;;;1.70;1.00;;;;;;5109781;27;20235;-70
2024/02/08 05:13:40;;;;;;;9.90;5.93;;;1.60;1.00;;;;;;5095725;28;20242;-71
2024/02/08 05:16:14;;;;;;;14.18;6.28;;;1.70;1.00;;;;;;5107834;27;20236;-71
2024/02/08 05:18:43;;;;;;;9.82;5.38;;;1.70;1.00;;;;;;5089244;27;20707;-71
2024/02/08 05:21:13;;;;;;;19.63;11.63;;;1.70;1.00;;;;;;5111039;27;20259;-72
2024/02/08 05:23:41;;;;;;;13.38;6.78;;;1.60;1.00;;;;;;5105949;27;20268;-72
2024/02/08 05:26:11;;;;;;;11.63;6.82;;;1.70;1.00;;;;;;5108672;27;20232;-75
2024/02/08 05:28:38;;;;;;;12.40;6.70;;;1.70;1.00;;;;;;5107290;27;20250;-77
2024/02/08 05:31:08;;;;;;;9.48;6.10;;;1.70;1.00;;;;;;5109703;27;20290;-75
2024/02/08 05:33:35;;;;;;;11.93;6.30;;;1.60;1.00;;;;;;5107902;27;20319;-75
2024/02/08 05:36:06;;;;;;;15.25;7.25;;;1.60;1.00;;;;;;5110680;27;20259;-75
2024/02/08 05:38:37;;;;;;;15.18;8.02;;;1.60;1.00;;;;;;5110895;27;20393;-74
2024/02/08 05:41:06;;;;;;;24.92;10.93;;;1.60;1.00;;;;;;5109815;27;21039;-75
2024/02/08 05:43:41;;;;;;;9.68;6.85;;;1.60;1.00;;;;;;5112031;27;20837;-74
2024/02/08 05:46:09;;;;;;;15.88;7.20;;;1.60;1.00;;;;;;5108803;27;20269;-76
2024/02/08 05:48:39;;;;;;;15.32;7.07;;;1.60;1.00;;;;;;5110517;27;20239;-75
2024/02/08 05:51:11;;;;;;;13.05;7.18;;;1.60;1.00;;;;;;5109045;27;20235;-76
2024/02/08 05:53:41;;;;;;;18.20;8.13;;;1.60;1.00;;;;;;5107942;27;20266;-75
2024/02/08 05:56:09;;;;;;;15.68;7.85;;;1.50;1.00;;;;;;5110475;27;20239;-75
2024/02/08 05:58:37;;;;;;;10.18;7.43;;;1.60;1.00;;;;;;5111471;27;20243;-74
2024/02/08 06:01:16;;;;;;;12.52;7.45;;;1.60;1.00;;;;;;5116947;27;20983;-76
2024/02/08 06:03:46;;;;;;;12.05;8.73;;;1.50;1.00;;;;;;5113523;27;20239;-75
2024/02/08 06:06:17;;;;;;;10.50;6.95;;;1.60;1.00;;;;;;5114228;27;20926;-75
2024/02/08 06:08:46;;;;;;;9.95;7.07;;;1.60;1.00;;;;;;5110484;27;20325;-77
2024/02/08 06:11:19;;;;;;;11.43;6.38;;;1.50;1.00;;;;;;5112536;27;21729;-75
2024/02/08 06:13:54;;;;;;;11.25;8.50;;;1.50;1.00;;;;;;5094448;27;20238;-78
2024/02/08 06:16:27;;;;;;;8.88;6.40;;;1.40;1.00;;;;;;5113224;27;21032;-76
2024/02/08 06:18:57;;;;;;;13.85;7.07;;;1.40;1.00;;;;;;5112793;27;20243;-75
2024/02/08 06:21:38;;;;;;;9.73;6.85;;;1.30;1.00;;;;;;5112467;27;20339;-76
2024/02/08 06:24:29;;;;;;;12.85;7.72;;;1.30;1.00;;;;;;5114935;27;20292;-76
2024/02/08 06:27:01;;;;;;;9.65;6.55;;;1.30;1.00;;;;;;5110622;27;20247;-75
2024/02/08 06:29:38;;;;;;;15.98;6.60;;;1.40;1.00;;;;;;5115617;27;20246;-76
2024/02/08 06:32:33;;;;;;;15.77;14.00;;;1.40;1.00;;;;;;5113221;27;20307;-75
2024/02/08 06:35:06;;;;;;;10.32;7.13;;;1.50;1.00;;;;;;5114989;28;20722;-74
2024/02/08 06:37:42;;;;;;;9.48;6.93;;;1.40;1.00;;;;;;5113518;27;20231;-74
2024/02/08 06:40:17;;;;;;;16.15;7.85;;;1.40;1.00;;;;;;5112566;27;20753;-74
2024/02/08 06:43:26;;;;;;;12.95;8.15;;;1.40;1.00;;;;;;5112992;27;20243;-71
2024/02/08 07:37:13;;;;;;;11.88;8.13;;;1.60;1.00;;;;;;5092956;27;20318;-70
2024/02/08 07:38:34;;;;;;;14.07;11.32;;;1.50;1.00;;;;;;5109924;28;20228;-73
2024/02/08 07:41:01;;;;;;;16.58;10.75;;;1.50;1.00;;;;;;5111972;28;20239;-70
2024/02/08 07:43:34;;;;;;;17.65;11.30;;;1.60;1.00;;;;;;5113914;28;20242;-69
2024/02/08 07:46:05;;;;;;;15.50;12.05;;;1.60;1.00;;;;;;5082330;28;20232;-70
2024/02/08 07:48:43;;;;;;;14.35;12.15;;;1.60;1.00;;;;;;5112858;27;20255;-73
2024/02/08 07:51:15;;;;;;;14.30;11.07;;;1.70;1.00;;;;;;5110605;27;20327;-72
2024/02/08 07:53:53;;;;;;;19.30;12.73;;;1.70;1.00;;;;;;5111355;27;20250;-74
2024/02/08 07:59:03;;;;;;;19.98;13.25;;;1.80;1.00;;;;;;5109153;27;20295;-71
2024/02/08 08:01:38;;;;;;;16.05;12.27;;;1.90;1.00;;;;;;5113282;27;20250;-73
2024/02/08 08:04:08;;;;;;;23.77;14.95;;;1.90;1.00;;;;;;5091382;28;20292;-71
2024/02/08 08:06:46;;;;;;;23.67;15.20;;;2.00;1.00;;;;;;5110615;27;20246;-71
2024/02/08 08:09:20;;;;;;;20.38;14.63;;;1.90;1.00;;;;;;5111900;27;20293;-70
2024/02/08 08:11:47;;;;;;;24.58;15.05;;;1.80;1.00;;;;;;5096431;27;21020;-70
2024/02/08 08:17:16;;;;;;;27.88;15.02;;;1.60;1.00;;;;;;5107277;27;20255;-70
2024/02/08 08:19:45;;;;;;;28.92;15.73;;;1.70;1.00;;;;;;5108970;27;20324;-70
2024/02/08 08:25:28;;;;;;;24.38;16.02;;;2.00;1.00;;;;;;5106340;27;20230;-73
2024/02/08 08:28:09;;;;;;;24.70;17.00;;;2.00;1.00;;;;;;5110242;27;20285;-70
2024/02/08 08:30:38;;;;;;;26.13;16.58;;;2.10;1.00;;;;;;5109724;27;20324;-70
2024/02/08 08:33:09;;;;;;;26.52;16.67;;;2.20;1.00;;;;;;5110541;27;20240;-70
2024/02/08 08:35:53;;;;;;;25.75;16.50;;;2.10;1.00;;;;;;5110022;28;20242;-69
2024/02/08 08:38:28;;;;;;;30.20;17.10;;;2.20;1.00;;;;;;5108848;27;20322;-74
2024/02/08 08:41:14;;;;;;;27.90;17.75;;;2.20;1.00;;;;;;5109236;27;20277;-72
2024/02/08 08:43:52;;;;;;;25.45;16.17;;;2.20;1.00;;;;;;5110423;27;21040;-71
2024/02/08 08:46:21;;;;;;;22.55;15.43;;;2.20;1.00;;;;;;5110448;27;20318;-70
2024/02/08 08:48:54;;;;;;;27.05;16.55;;;2.20;1.00;;;;;;5108944;27;20369;-71
2024/02/08 08:51:30;;;;;;;24.92;15.63;;;2.10;1.00;;;;;;5108301;27;20685;-70
2024/02/08 08:54:00;;;;;;;23.80;14.80;;;2.10;1.00;;;;;;5108686;27;20321;-71
2024/02/08 08:56:29;;;;;;;27.80;16.42;;;2.30;1.00;;;;;;5111256;28;20235;-72
2024/02/08 08:58:58;;;;;;;32.17;17.23;;;2.40;1.00;;;;;;5110237;27;20274;-72
2024/02/08 09:01:25;;;;;;;30.38;17.25;;;2.50;1.00;;;;;;5109278;27;20439;-72
2024/02/08 09:04:10;;;;;;;22.27;14.98;;;2.60;1.00;;;;;;5107357;27;20319;-71
2024/02/08 09:06:38;;;;;;;25.02;17.10;;;2.70;1.00;;;;;;5108601;27;20223;-72
2024/02/08 09:09:27;;;;;;;22.27;16.65;;;2.80;1.00;;;;;;5109303;27;20285;-71
2024/02/08 09:11:57;;;;;;;29.25;17.38;;;2.70;1.00;;;;;;5109928;27;20224;-71
2024/02/08 09:14:30;;;;;;;24.73;16.35;;;2.60;1.00;;;;;;5109351;27;20277;-72
2024/02/08 09:16:57;;;;;;;26.90;17.23;;;2.60;1.00;;;;;;5108099;27;20330;-71
2024/02/08 09:19:28;;;;;;;29.13;18.15;;;2.70;1.00;;;;;;5109465;27;20238;-72
2024/02/08 09:21:58;;;;;;;27.73;17.85;;;2.80;1.00;;;;;;5110653;27;20239;-72
2024/02/08 09:24:26;;;;;;;29.95;17.60;;;2.90;1.00;;;;;;5108084;27;20238;-73
2024/02/08 09:27:04;;;;;;;24.88;16.45;;;3.00;1.00;;;;;;5110063;27;20342;-75
2024/02/08 09:29:38;;;;;;;30.17;19.58;;;3.00;1.00;;;;;;5109315;27;20342;-71
2024/02/08 09:32:26;;;;;;;33.08;18.52;;;3.00;1.00;;;;;;5109111;27;20285;-73
2024/02/08 09:34:59;;;;;;;26.65;17.40;;;3.20;1.00;;;;;;5106835;27;20235;-71
2024/02/08 09:37:29;;;;;;;25.63;16.70;;;3.10;1.00;;;;;;5109061;27;20232;-71
2024/02/08 09:39:59;;;;;;;25.48;18.23;;;3.10;1.00;;;;;;5109193;27;20228;-72
2024/02/08 09:42:27;;;;;;;31.90;18.88;;;3.10;1.00;;;;;;5110089;27;20241;-72
2024/02/08 09:45:04;;;;;;;36.22;18.55;;;3.30;1.00;;;;;;5107168;27;20317;-71
2024/02/08 09:47:35;;;;;;;24.95;16.10;;;3.50;1.00;;;;;;5110367;27;20329;-71
2024/02/08 09:50:07;;;;;;;25.80;17.65;;;3.50;1.00;;;;;;5108930;27;20231;-71
2024/02/08 09:52:45;;;;;;;34.95;20.00;;;3.60;1.00;;;;;;5108372;27;20235;-75
2024/02/08 09:55:18;;;;;;;27.00;17.33;;;3.70;1.00;;;;;;5108091;27;20271;-71
2024/02/08 09:57:46;;;;;;;27.48;17.58;;;3.70;1.00;;;;;;5110480;27;20223;-77
2024/02/08 10:03:03;;;;;;;24.77;17.58;;;3.60;1.00;;;;;;5107607;27;20236;-73
2024/02/08 10:05:52;;;;;;;28.23;17.38;;;3.60;1.00;;;;;;5106163;27;20243;-71
2024/02/08 10:08:28;;;;;;;30.85;18.00;;;3.60;1.00;;;;;;5108295;27;20234;-70
2024/02/08 10:11:11;;;;;;;28.00;18.50;;;3.60;1.00;;;;;;5107392;27;20312;-73
2024/02/08 10:13:53;;;;;;;30.33;19.20;;;3.60;1.00;;;;;;5108763;27;20289;-71
2024/02/08 10:16:29;;;;;;;29.25;19.50;;;3.50;1.00;;;;;;5108157;28;20296;-70
2024/02/08 10:19:03;;;;;;;31.60;19.65;;;3.70;1.00;;;;;;5108030;27;20266;-71
2024/02/08 10:21:35;;;;;;;32.85;19.45;;;3.70;1.00;;;;;;5109907;27;20235;-71
2024/02/08 10:24:44;;;;;;;29.85;19.63;;;3.80;1.00;;;;;;5107302;27;20251;-71
2024/02/08 10:26:58;;;;;;;33.58;21.25;;;3.70;1.00;;;;;;5108431;27;20293;-70
2024/02/08 10:29:26;;;;;;;37.40;21.38;;;3.90;1.00;;;;;;5108591;27;20271;-71
2024/02/08 10:31:54;;;;;;;44.70;27.30;;;4.10;1.00;;;;;;5107153;27;20235;-72
2024/02/08 10:34:33;;;;;;;39.33;22.20;;;4.30;1.00;;;;;;5107733;27;20987;-70
2024/02/08 10:37:04;;;;;;;31.65;20.48;;;4.50;1.00;;;;;;5108938;27;20231;-71
2024/02/08 10:39:32;;;;;;;33.83;20.85;;;4.70;1.00;;;;;;5107623;27;20240;-70
2024/02/08 10:42:01;;;;;;;28.23;20.27;;;4.90;1.00;;;;;;5106465;27;20238;-71
2024/02/08 10:44:32;;;;;;;32.92;20.67;;;5.00;1.00;;;;;;5109716;27;20322;-73
2024/02/08 10:47:06;;;;;;;27.92;19.33;;;5.00;1.00;;;;;;5110585;27;20762;-73
2024/02/08 10:49:42;;;;;;;32.45;17.35;;;5.30;1.00;;;;;;5112940;27;20428;-73
2024/02/08 10:52:12;;;;;;;30.98;19.42;;;5.40;1.00;;;;;;5112127;27;20231;-74
2024/02/08 10:54:43;;;;;;;22.40;15.80;;;5.50;1.00;;;;;;5110724;27;20289;-70
2024/02/08 10:57:39;;;;;;;26.92;18.65;;;5.60;1.00;;;;;;5110843;27;20237;-70
2024/02/08 10:59:59;;;;;;;33.95;20.20;;;5.70;1.00;;;;;;5110513;27;20240;-70
2024/02/08 11:02:35;;;;;;;30.20;18.77;;;6.00;1.00;;;;;;5109949;27;20730;-71
2024/02/08 11:05:21;;;;;;;18.95;14.93;;;6.20;1.00;;;;;;5111596;27;20793;-73
2024/02/08 11:07:53;;;;;;;24.42;19.08;;;6.50;1.00;;;;;;5110246;27;20335;-70
2024/02/08 11:10:23;;;;;;;22.73;15.80;;;6.70;1.00;;;;;;5101102;27;20246;-71
2024/02/08 11:12:56;;;;;;;25.65;17.35;;;6.60;1.00;;;;;;5093085;28;20481;-71
2024/02/08 11:15:30;;;;;;;22.35;16.80;;;6.80;1.00;;;;;;5093525;28;20322;-71
2024/02/08 11:18:02;;;;;;;26.55;15.63;;;6.90;1.00;;;;;;5073650;28;20249;-71
2024/02/08 11:20:42;;;;;;;23.13;16.90;;;7.00;1.00;;;;;;5089040;28;20664;-73
2024/02/08 11:23:12;;;;;;;25.63;17.33;;;7.40;1.00;;;;;;5091362;28;20724;-73
2024/02/08 11:25:44;;;;;;;30.30;18.70;;;7.60;1.00;;;;;;5090634;28;20981;-72
2024/02/08 11:28:13;;;;;;;31.35;21.33;;;7.80;1.00;;;;;;5095034;28;20476;-71
2024/02/08 11:30:41;;;;;;;32.08;19.08;;;7.80;1.00;;;;;;5088398;28;20253;-71
2024/02/08 11:33:13;;;;;;;31.80;18.73;;;7.70;1.00;;;;;;5091708;28;20329;-72
2024/02/08 11:35:45;;;;;;;26.80;18.17;;;7.70;1.00;;;;;;5089389;28;20462;-71
2024/02/08 11:38:16;;;;;;;23.97;16.20;;;7.90;1.00;;;;;;5094778;28;20289;-71
2024/02/08 11:40:47;;;;;;;26.27;16.97;;;8.10;1.00;;;;;;5087786;28;20461;-73
2024/02/08 11:43:23;;;;;;;24.90;18.23;;;8.30;1.00;;;;;;5093926;28;20473;-71
2024/02/08 11:45:52;;;;;;;26.17;16.90;;;8.30;1.00;;;;;;5092383;28;21072;-72
2024/02/08 11:48:26;;;;;;;25.20;17.43;;;7.90;1.00;;;;;;5091075;28;20242;-71
2024/02/08 11:50:55;;;;;;;25.03;16.93;;;7.80;1.00;;;;;;5092440;28;20910;-73
2024/02/08 11:53:33;;;;;;;22.30;17.20;;;7.80;1.00;;;;;;5093424;28;20472;-73
2024/02/08 11:56:08;;;;;;;28.42;18.85;;;7.90;1.00;;;;;;5090457;27;20466;-72
2024/02/08 11:58:41;;;;;;;28.65;19.80;;;7.70;1.00;;;;;;5088444;28;20231;-74
2024/02/08 12:01:09;;;;;;;25.30;17.40;;;7.60;1.00;;;;;;5092575;28;20322;-72
2024/02/08 12:03:41;;;;;;;26.63;16.13;;;7.50;1.00;;;;;;5090518;28;21221;-71
2024/02/08 12:06:21;;;;;;;27.73;17.13;;;7.50;1.00;;;;;;5091640;28;20458;-72
2024/02/08 12:08:57;;;;;;;22.47;16.90;;;7.40;1.00;;;;;;5088231;27;20286;-73
2024/02/08 12:11:24;;;;;;;30.23;18.47;;;7.50;1.00;;;;;;5090806;28;20454;-70
2024/02/08 12:13:56;;;;;;;25.47;16.90;;;7.40;1.00;;;;;;5092075;28;20504;-72
2024/02/08 12:16:25;;;;;;;34.33;17.60;;;7.40;1.00;;;;;;5089839;28;20458;-71
2024/02/08 12:18:56;;;;;;;23.65;17.50;;;7.30;1.00;;;;;;5089945;28;20467;-72
2024/02/08 12:21:23;;;;;;;29.00;20.50;;;7.30;1.00;;;;;;5093029;27;20742;-72
2024/02/08 12:23:53;;;;;;;30.27;19.25;;;7.40;1.00;;;;;;5089947;28;20331;-72
2024/02/08 12:26:23;;;;;;;29.50;17.80;;;7.40;1.00;;;;;;5089866;28;20237;-71
2024/02/08 12:28:56;;;;;;;22.80;16.50;;;7.60;1.00;;;;;;5089541;28;20236;-71
2024/02/08 12:31:24;;;;;;;32.90;17.50;;;7.60;1.00;;;;;;5093739;27;20452;-71
2024/02/08 12:33:53;;;;;;;31.53;18.33;;;7.70;1.00;;;;;;5090237;28;20477;-71
2024/02/08 12:36:23;;;;;;;27.17;18.60;;;7.70;1.00;;;;;;5091682;28;21677;-71
2024/02/08 12:38:54;;;;;;;24.70;16.50;;;7.70;1.00;;;;;;5092314;28;20959;-70
2024/02/08 12:41:22;;;;;;;28.53;17.90;;;7.90;1.00;;;;;;5091015;28;20550;-71
2024/02/08 12:43:51;;;;;;;26.07;17.17;;;7.90;1.00;;;;;;5092587;28;20480;-74
2024/02/08 12:46:18;;;;;;;45.90;20.27;;;8.00;1.00;;;;;;5088581;28;20461;-70
2024/02/08 12:48:47;;;;;;;25.20;17.30;;;8.10;1.00;;;;;;5091339;28;21411;-71
2024/02/08 12:51:19;;;;;;;25.37;17.90;;;7.90;1.00;;;;;;5090639;28;20458;-71
2024/02/08 12:53:46;;;;;;;34.03;19.37;;;7.70;1.00;;;;;;5092924;28;20509;-70
2024/02/08 12:56:14;;;;;;;24.00;16.07;;;7.60;1.00;;;;;;5088842;28;20490;-71
2024/02/08 12:58:41;;;;;;;30.00;17.67;;;7.60;1.00;;;;;;5092632;28;20466;-70
2024/02/08 13:01:14;;;;;;;28.80;18.73;;;7.50;1.00;;;;;;5090024;28;20459;-70
2024/02/08 13:03:42;;;;;;;28.27;18.60;;;7.40;1.00;;;;;;5090912;28;20471;-72
2024/02/08 13:06:12;;;;;;;43.17;20.10;;;7.30;1.00;;;;;;5090141;27;20452;-71
2024/02/08 13:08:44;;;;;;;29.50;17.93;;;7.20;1.00;;;;;;5089353;28;20465;-69
2024/02/08 13:11:12;;;;;;;22.13;17.70;;;7.10;1.00;;;;;;5101865;27;20552;-71
2024/02/08 13:13:41;;;;;;;23.47;15.43;;;7.00;1.00;;;;;;5096793;27;21087;-71
2024/02/08 13:16:09;;;;;;;21.50;16.00;;;7.00;1.00;;;;;;5098723;27;20454;-71
2024/02/08 13:18:38;;;;;;;25.07;16.70;;;6.90;1.00;;;;;;5106425;28;20472;-71
2024/02/08 13:21:05;;;;;;;23.30;17.47;;;6.90;1.00;;;;;;5107469;27;20482;-70
2024/02/08 13:23:34;;;;;;;22.50;16.80;;;6.90;1.00;;;;;;5105141;28;20992;-70
2024/02/08 13:26:06;;;;;;;27.77;17.65;;;6.90;1.00;;;;;;5104875;27;21634;-71
2024/02/08 13:28:33;;;;;;;24.13;16.05;;;7.00;1.00;;;;;;5107660;28;20243;-73
2024/02/08 13:31:05;;;;;;;21.60;15.23;;;6.90;1.00;;;;;;5105902;27;20232;-71
2024/02/08 13:33:36;;;;;;;26.33;15.47;;;7.00;1.00;;;;;;5105677;27;20491;-70
2024/02/08 13:36:08;;;;;;;26.53;17.30;;;7.00;1.00;;;;;;5106750;28;20452;-71
2024/02/08 13:38:38;;;;;;;25.33;16.83;;;7.00;1.00;;;;;;5107772;27;20478;-73
2024/02/08 13:41:09;;;;;;;23.90;16.83;;;7.00;1.00;;;;;;5109120;27;20493;-74
2024/02/08 13:43:39;;;;;;;30.53;19.50;;;7.00;1.00;;;;;;5105888;27;20464;-73
2024/02/08 13:46:08;;;;;;;26.37;19.13;;;7.00;1.00;;;;;;5107965;27;20922;-72
2024/02/08 13:48:35;;;;;;;24.92;18.63;;;6.90;1.00;;;;;;5106292;27;21002;-72
2024/02/08 13:51:06;;;;;;;27.17;19.90;;;6.70;1.00;;;;;;5102924;28;20238;-72
2024/02/08 13:53:35;;;;;;;35.30;19.40;;;6.70;1.00;;;;;;5108857;27;20486;-72
2024/02/08 13:56:05;;;;;;;29.80;19.33;;;6.60;1.00;;;;;;5107201;27;20956;-72
2024/02/08 13:58:36;;;;;;;28.67;19.87;;;6.50;1.00;;;;;;5107715;27;20239;-72
2024/02/08 14:01:03;;;;;;;31.87;20.00;;;6.50;1.00;;;;;;5106969;27;21208;-73
2024/02/08 14:03:34;;;;;;;35.67;21.73;;;6.60;1.00;;;;;;5107281;27;20540;-73
2024/02/08 14:06:01;;;;;;;31.43;20.40;;;6.60;1.00;;;;;;5108112;28;20536;-72
2024/02/08 14:08:29;;;;;;;34.97;20.38;;;6.50;1.00;;;;;;5107147;27;20462;-72
2024/02/08 14:10:57;;;;;;;27.83;19.02;;;6.50;1.00;;;;;;5104793;27;20235;-73
2024/02/08 14:13:34;;;;;;;28.20;20.00;;;6.60;1.00;;;;;;5107910;27;20231;-71
2024/02/08 14:16:07;;;;;;;35.90;20.85;;;6.60;1.00;;;;;;5108725;27;20619;-72
2024/02/08 14:18:35;;;;;;;32.20;20.27;;;6.60;1.00;;;;;;5110244;27;20249;-72
2024/02/08 14:21:03;;;;;;;30.52;19.65;;;6.60;1.00;;;;;;5111898;27;20231;-72
2024/02/08 14:23:37;;;;;;;37.97;22.00;;;6.50;1.00;;;;;;5112959;27;20279;-72
2024/02/08 14:26:31;;;;;;;26.42;18.50;;;6.50;1.00;;;;;;5109302;27;20657;-70
2024/02/08 14:28:59;;;;;;;30.83;19.73;;;6.60;1.00;;;;;;5111353;27;21196;-71
2024/02/08 14:31:26;;;;;;;28.43;17.00;;;6.70;1.00;;;;;;5113061;27;20235;-73
2024/02/08 14:33:55;;;;;;;30.93;19.40;;;6.70;1.00;;;;;;5107190;27;20560;-71
2024/02/08 14:36:22;;;;;;;28.65;17.80;;;6.50;1.00;;;;;;5112287;27;20548;-71
2024/02/08 14:38:49;;;;;;;22.30;17.67;;;6.60;1.00;;;;;;5110358;27;20319;-72
2024/02/08 14:41:32;;;;;;;28.03;16.23;;;6.60;1.00;;;;;;5101028;27;20456;-72
2024/02/08 14:44:07;;;;;;;25.53;17.53;;;6.70;1.00;;;;;;5110385;27;20496;-73
2024/02/08 14:46:34;;;;;;;23.95;16.83;;;6.70;1.00;;;;;;5112794;27;20473;-72
2024/02/08 14:49:16;;;;;;;36.60;21.80;;;6.60;1.00;;;;;;5113032;27;20231;-72
2024/02/08 14:51:47;;;;;;;30.47;17.97;;;6.60;1.00;;;;;;5113613;27;20229;-72
2024/02/08 14:54:18;;;;;;;27.10;17.38;;;6.50;1.00;;;;;;5100436;27;20503;-72
2024/02/08 14:57:03;;;;;;;22.63;16.77;;;6.50;1.00;;;;;;5112161;27;20379;-73